Time;durP1;ratioP1;P1;durP2;ratioP2;P2;SDS_P1;SDS_P2;PMS_P1;PMS_P2;Temp;Humidity;BMP_temperature;BMP_pressure;BME280_temperature;BME280_humidity;BME280_pressure;Samples;Min_cycle;Max_cycle;Signal;HPM_P1;HPM_P2
2023/11/21 00:01:54;;;;;;;7.45;5.03;;;5.30;99.90;;;;;;5071630;28;20024;-75
2023/11/21 00:04:21;;;;;;;9.30;5.47;;;5.20;99.90;;;;;;5072512;28;20016;-80
2023/11/21 00:06:47;;;;;;;7.07;5.22;;;5.30;99.90;;;;;;5072784;28;20021;-75
2023/11/21 00:09:15;;;;;;;6.90;5.10;;;5.30;99.90;;;;;;5072808;28;20025;-81
2023/11/21 00:11:41;;;;;;;7.38;5.00;;;5.30;99.90;;;;;;5071456;28;20055;-75
2023/11/21 00:14:08;;;;;;;6.80;5.13;;;5.30;99.90;;;;;;5071192;28;20020;-77
2023/11/21 00:16:34;;;;;;;7.32;5.22;;;5.20;99.90;;;;;;5071589;28;20016;-80
2023/11/21 00:18:59;;;;;;;7.78;4.95;;;5.20;99.90;;;;;;5071341;28;20083;-80
2023/11/21 00:21:25;;;;;;;10.88;6.13;;;5.20;99.90;;;;;;5071209;28;20054;-75
2023/11/21 00:23:51;;;;;;;9.10;5.40;;;5.20;99.90;;;;;;5072553;28;20028;-81
2023/11/21 00:26:17;;;;;;;8.32;5.72;;;5.20;99.90;;;;;;5072603;28;20067;-80
2023/11/21 00:28:43;;;;;;;8.82;5.50;;;5.20;99.90;;;;;;5072371;28;20493;-81
2023/11/21 00:31:08;;;;;;;7.25;4.85;;;5.20;99.90;;;;;;5072378;28;20025;-75
2023/11/21 00:33:34;;;;;;;11.65;6.03;;;5.20;99.90;;;;;;5072394;28;20538;-81
2023/11/21 00:36:00;;;;;;;14.20;7.78;;;5.20;99.90;;;;;;5072404;28;20020;-81
2023/11/21 00:38:27;;;;;;;8.80;5.78;;;5.20;99.90;;;;;;5072289;28;20013;-75
2023/11/21 00:40:55;;;;;;;11.32;6.55;;;5.20;99.90;;;;;;5071083;28;20063;-75
2023/11/21 00:43:24;;;;;;;9.15;7.28;;;5.20;99.90;;;;;;5071022;28;20472;-79
2023/11/21 00:45:51;;;;;;;11.70;6.45;;;5.20;99.90;;;;;;5072461;28;20020;-75
2023/11/21 00:48:17;;;;;;;8.38;5.82;;;5.20;99.90;;;;;;5071107;28;20026;-81
2023/11/21 00:50:43;;;;;;;9.40;6.20;;;5.10;99.90;;;;;;5072617;28;20108;-79
2023/11/21 00:53:09;;;;;;;10.82;6.70;;;5.20;99.90;;;;;;5072054;28;20553;-75
2023/11/21 00:55:35;;;;;;;14.93;7.13;;;5.20;99.90;;;;;;5072524;28;20152;-75
2023/11/21 00:58:03;;;;;;;10.27;7.40;;;5.20;99.90;;;;;;5070804;28;20036;-75
2023/11/21 01:00:29;;;;;;;10.77;7.20;;;5.20;99.90;;;;;;5071052;28;20048;-75
2023/11/21 01:02:55;;;;;;;8.95;6.82;;;5.20;99.90;;;;;;5072118;28;20146;-75
2023/11/21 01:05:21;;;;;;;13.00;6.93;;;5.20;99.90;;;;;;5068902;28;20070;-75
2023/11/21 01:07:47;;;;;;;13.43;7.15;;;5.20;99.90;;;;;;5072035;28;20021;-75
2023/11/21 01:10:12;;;;;;;10.40;6.90;;;5.20;99.90;;;;;;5070602;28;20064;-80
2023/11/21 01:12:39;;;;;;;10.70;6.57;;;5.20;99.90;;;;;;5071825;28;20043;-75
2023/11/21 01:15:08;;;;;;;11.82;6.72;;;5.20;99.90;;;;;;5072072;28;20111;-80
2023/11/21 01:17:34;;;;;;;9.05;6.47;;;5.10;99.90;;;;;;5072223;28;20032;-75
2023/11/21 01:20:01;;;;;;;10.27;6.13;;;5.10;99.90;;;;;;5068400;28;20021;-81
2023/11/21 01:22:28;;;;;;;9.43;6.05;;;5.10;99.90;;;;;;5071951;28;20020;-80
2023/11/21 01:24:54;;;;;;;9.07;5.85;;;5.20;99.90;;;;;;5071855;28;20020;-75
2023/11/21 01:27:20;;;;;;;8.23;5.78;;;5.10;99.90;;;;;;5070454;28;20024;-75
2023/11/21 01:29:46;;;;;;;5.28;4.13;;;5.10;99.90;;;;;;5070758;28;20013;-75
2023/11/21 01:32:11;;;;;;;7.03;4.22;;;5.10;99.90;;;;;;5070322;28;20045;-80
2023/11/21 01:34:37;;;;;;;7.22;4.43;;;5.10;99.90;;;;;;5070675;28;20017;-80
2023/11/21 01:37:04;;;;;;;8.70;4.28;;;5.10;99.90;;;;;;5071836;28;20071;-80
2023/11/21 01:39:31;;;;;;;6.20;3.38;;;5.10;99.90;;;;;;5071716;28;20516;-75
2023/11/21 01:41:58;;;;;;;3.80;3.13;;;5.10;99.90;;;;;;5073843;28;20393;-81
2023/11/21 01:44:27;;;;;;;5.30;3.20;;;5.10;99.90;;;;;;5075747;28;20504;-75
2023/11/21 01:46:53;;;;;;;4.68;3.42;;;5.10;99.90;;;;;;5074179;28;20024;-75
2023/11/21 01:49:20;;;;;;;6.22;3.70;;;5.00;99.90;;;;;;5074136;28;20119;-80
2023/11/21 01:51:48;;;;;;;4.68;2.90;;;5.00;99.90;;;;;;5075069;28;20024;-80
2023/11/21 01:54:17;;;;;;;4.38;3.05;;;5.00;99.90;;;;;;5075296;28;20031;-80
2023/11/21 01:56:45;;;;;;;3.33;2.83;;;5.00;99.90;;;;;;5075247;28;20103;-80
2023/11/21 01:59:13;;;;;;;4.57;2.83;;;5.00;99.90;;;;;;5073957;28;20016;-75
2023/11/21 02:01:39;;;;;;;7.50;2.70;;;5.00;99.90;;;;;;5073386;28;20035;-74
2023/11/21 02:04:05;;;;;;;3.40;2.67;;;5.00;99.90;;;;;;5075137;28;20020;-74
2023/11/21 02:06:31;;;;;;;4.97;2.90;;;4.90;99.90;;;;;;5073506;28;20056;-80
2023/11/21 02:08:56;;;;;;;4.85;3.00;;;5.00;99.90;;;;;;5073793;28;20024;-74
2023/11/21 02:11:22;;;;;;;3.90;2.60;;;5.00;99.90;;;;;;5074698;28;20027;-80
2023/11/21 02:13:49;;;;;;;3.55;2.55;;;5.00;99.90;;;;;;5074914;28;20058;-74
2023/11/21 02:16:15;;;;;;;3.45;2.67;;;5.00;99.90;;;;;;5061399;28;20035;-74
2023/11/21 02:18:41;;;;;;;3.15;2.70;;;5.00;99.90;;;;;;5073820;28;20509;-80
2023/11/21 02:21:10;;;;;;;5.47;2.67;;;4.90;99.90;;;;;;5074665;28;20032;-75
2023/11/21 02:23:35;;;;;;;6.88;3.17;;;4.90;99.90;;;;;;5073602;28;20059;-75
2023/11/21 02:26:04;;;;;;;5.63;2.63;;;4.90;99.90;;;;;;5074498;28;20082;-75
2023/11/21 02:28:30;;;;;;;5.47;3.45;;;4.90;99.90;;;;;;5073565;28;20044;-75
2023/11/21 02:30:56;;;;;;;3.70;2.83;;;5.00;99.90;;;;;;5074057;28;20087;-80
2023/11/21 02:33:22;;;;;;;3.75;2.63;;;5.00;99.90;;;;;;5074625;28;20033;-81
2023/11/21 02:35:48;;;;;;;3.30;2.97;;;4.90;99.90;;;;;;5074355;28;20035;-81
2023/11/21 02:38:15;;;;;;;6.15;3.83;;;4.90;99.90;;;;;;5074300;28;20025;-74
2023/11/21 02:40:42;;;;;;;8.15;4.18;;;4.90;99.90;;;;;;5074388;28;20025;-74
2023/11/21 02:43:07;;;;;;;6.45;3.72;;;4.90;99.90;;;;;;5073045;28;20044;-74
2023/11/21 02:45:33;;;;;;;4.95;3.45;;;4.90;99.90;;;;;;5074440;28;20421;-80
2023/11/21 02:47:59;;;;;;;4.65;3.60;;;4.90;99.90;;;;;;5072930;28;20019;-80
2023/11/21 02:50:24;;;;;;;3.97;3.53;;;4.90;99.90;;;;;;5074308;28;20374;-74
2023/11/21 02:52:50;;;;;;;5.20;3.97;;;4.90;99.90;;;;;;5072855;28;20031;-80
2023/11/21 02:55:16;;;;;;;6.35;3.70;;;4.90;99.90;;;;;;5073993;28;20497;-74
2023/11/21 02:57:42;;;;;;;5.82;3.28;;;4.90;99.90;;;;;;5074164;28;20032;-75
2023/11/21 03:00:08;;;;;;;4.68;3.00;;;4.90;99.90;;;;;;5072666;28;20031;-80
2023/11/21 03:02:38;;;;;;;4.97;3.90;;;4.80;99.90;;;;;;5072954;28;20043;-75
2023/11/21 03:05:05;;;;;;;5.75;4.25;;;4.80;99.90;;;;;;5073837;28;20020;-80
2023/11/21 03:07:31;;;;;;;5.47;3.85;;;4.80;99.90;;;;;;5072703;28;20482;-80
2023/11/21 03:09:56;;;;;;;8.65;4.25;;;4.80;99.90;;;;;;5073699;28;20017;-81
2023/11/21 03:12:22;;;;;;;4.85;3.75;;;4.80;99.90;;;;;;5072577;28;20047;-75
2023/11/21 03:14:47;;;;;;;5.32;4.38;;;4.90;99.90;;;;;;5072343;28;20461;-80
2023/11/21 03:17:14;;;;;;;8.13;4.15;;;4.80;99.90;;;;;;5072470;28;20456;-75
2023/11/21 03:19:42;;;;;;;9.73;4.35;;;4.80;99.90;;;;;;5072234;28;20500;-75
2023/11/21 03:22:08;;;;;;;7.65;3.80;;;4.80;99.90;;;;;;5072085;28;20433;-81
2023/11/21 03:24:34;;;;;;;5.70;4.22;;;4.80;99.90;;;;;;5071602;28;20120;-75
2023/11/21 03:27:00;;;;;;;6.50;4.38;;;4.80;99.90;;;;;;5071120;28;20023;-75
2023/11/21 03:29:26;;;;;;;6.05;4.07;;;4.80;99.90;;;;;;5068748;28;20029;-75
2023/11/21 03:31:51;;;;;;;5.78;4.60;;;4.80;99.90;;;;;;5071408;28;20045;-80
2023/11/21 03:34:26;;;;;;;4.40;3.85;;;4.80;99.90;;;;;;5071990;28;20056;-75
2023/11/21 03:36:52;;;;;;;5.95;4.13;;;4.80;99.90;;;;;;5065355;28;20017;-80
2023/11/21 03:39:19;;;;;;;7.03;4.10;;;4.80;99.90;;;;;;5073124;28;20024;-74
2023/11/21 03:41:45;;;;;;;6.03;4.38;;;4.70;99.90;;;;;;5072202;28;20031;-75
2023/11/21 03:44:10;;;;;;;7.82;4.43;;;4.80;99.90;;;;;;5067724;28;20021;-75
2023/11/21 03:46:36;;;;;;;5.97;3.63;;;4.80;99.90;;;;;;5072677;28;20028;-74
2023/11/21 03:49:02;;;;;;;6.28;3.33;;;4.80;99.90;;;;;;5067532;28;20017;-80
2023/11/21 03:51:27;;;;;;;6.22;3.65;;;4.70;99.90;;;;;;5068013;28;20044;-82
2023/11/21 03:53:53;;;;;;;6.78;3.17;;;4.70;99.90;;;;;;5072736;28;20451;-75
2023/11/21 03:56:21;;;;;;;6.38;3.47;;;4.70;99.90;;;;;;5059704;28;20119;-74
2023/11/21 03:58:48;;;;;;;4.28;3.88;;;4.80;99.90;;;;;;5071320;28;20017;-74
2023/11/21 04:01:23;;;;;;;4.70;3.20;;;4.80;99.90;;;;;;5072745;28;20048;-74
2023/11/21 04:03:50;;;;;;;4.57;3.50;;;4.80;99.90;;;;;;5062079;28;20100;-75
2023/11/21 04:06:17;;;;;;;4.78;2.80;;;4.70;99.90;;;;;;5071296;28;20017;-75
2023/11/21 04:08:46;;;;;;;3.58;3.10;;;4.70;99.90;;;;;;5071700;28;20367;-75
2023/11/21 04:11:12;;;;;;;4.70;2.88;;;4.70;99.90;;;;;;5072378;28;20481;-75
2023/11/21 04:13:39;;;;;;;4.45;3.00;;;4.70;99.90;;;;;;5071725;28;20454;-75
2023/11/21 04:16:07;;;;;;;4.20;3.40;;;4.70;99.90;;;;;;5070847;28;20086;-75
2023/11/21 04:18:37;;;;;;;3.63;3.25;;;4.80;99.90;;;;;;5071292;28;20028;-75
2023/11/21 04:21:04;;;;;;;5.55;3.40;;;4.80;99.90;;;;;;5072495;28;20025;-80
2023/11/21 04:23:31;;;;;;;6.45;3.35;;;4.80;99.90;;;;;;5072426;28;20024;-74
2023/11/21 04:25:57;;;;;;;4.70;3.63;;;4.80;99.90;;;;;;5070589;28;20431;-81
2023/11/21 04:28:25;;;;;;;5.75;3.53;;;4.80;99.90;;;;;;5072716;28;20016;-78
2023/11/21 04:30:51;;;;;;;5.15;3.45;;;4.70;99.90;;;;;;5072278;28;20174;-81
2023/11/21 04:33:17;;;;;;;9.35;3.65;;;4.80;99.90;;;;;;5071795;28;20566;-75
2023/11/21 04:35:43;;;;;;;5.53;3.72;;;4.70;99.90;;;;;;5072518;28;20470;-81
2023/11/21 04:38:08;;;;;;;4.70;3.13;;;4.70;99.90;;;;;;5071216;28;20019;-80
2023/11/21 04:40:34;;;;;;;4.80;3.75;;;4.70;99.90;;;;;;5071294;28;20171;-81
2023/11/21 04:43:01;;;;;;;5.47;3.38;;;4.70;99.90;;;;;;5070055;28;20090;-82
2023/11/21 04:45:27;;;;;;;3.72;3.38;;;4.70;99.90;;;;;;5069724;28;20029;-81
2023/11/21 04:47:52;;;;;;;4.78;3.58;;;4.70;99.90;;;;;;5071625;28;20518;-81
2023/11/21 04:50:19;;;;;;;5.90;3.30;;;4.70;99.90;;;;;;5072240;28;20503;-81
2023/11/21 04:52:44;;;;;;;3.60;3.17;;;4.70;99.90;;;;;;5071571;28;20112;-75
2023/11/21 04:55:10;;;;;;;6.43;3.53;;;4.70;99.90;;;;;;5072319;28;20052;-76
2023/11/21 04:57:37;;;;;;;5.35;3.25;;;4.70;99.90;;;;;;5072334;28;20028;-75
2023/11/21 05:00:05;;;;;;;12.82;3.17;;;4.70;99.90;;;;;;5071061;28;20523;-81
2023/11/21 05:02:34;;;;;;;3.40;2.53;;;4.70;99.90;;;;;;5071046;28;20040;-81
2023/11/21 05:05:00;;;;;;;4.63;2.80;;;4.70;99.90;;;;;;5072243;28;20059;-75
2023/11/21 05:07:28;;;;;;;5.60;2.80;;;4.70;99.90;;;;;;5071000;28;20401;-80
2023/11/21 05:09:57;;;;;;;4.03;2.63;;;4.70;99.90;;;;;;5072200;28;20104;-76
2023/11/21 05:12:24;;;;;;;3.90;2.42;;;4.70;99.90;;;;;;5072091;28;20044;-75
2023/11/21 05:14:50;;;;;;;5.07;2.67;;;4.70;99.90;;;;;;5073700;28;20020;-74
2023/11/21 05:17:16;;;;;;;5.82;2.70;;;4.70;99.90;;;;;;5074804;28;20492;-74
2023/11/21 05:19:42;;;;;;;5.20;2.75;;;4.70;99.90;;;;;;5075839;28;20044;-74
2023/11/21 05:22:08;;;;;;;4.38;2.50;;;4.70;99.90;;;;;;5074531;28;20027;-74
2023/11/21 05:24:34;;;;;;;4.45;3.45;;;4.70;99.90;;;;;;5074624;28;20028;-74
2023/11/21 05:27:00;;;;;;;5.07;3.40;;;4.70;99.90;;;;;;5074463;28;20127;-74
2023/11/21 05:29:27;;;;;;;5.72;3.03;;;4.70;99.90;;;;;;5075524;28;20092;-80
2023/11/21 05:31:53;;;;;;;4.93;3.65;;;4.70;99.90;;;;;;5074320;28;20055;-74
2023/11/21 05:34:20;;;;;;;6.85;3.92;;;4.70;99.90;;;;;;5075544;28;20020;-80
2023/11/21 05:36:46;;;;;;;9.25;4.28;;;4.70;99.90;;;;;;5074409;28;20017;-80
2023/11/21 05:39:12;;;;;;;7.22;4.32;;;4.70;99.90;;;;;;5076106;28;20144;-80
2023/11/21 05:41:37;;;;;;;4.85;3.85;;;4.70;99.90;;;;;;5075636;28;20100;-80
2023/11/21 05:44:03;;;;;;;6.85;4.78;;;4.70;99.90;;;;;;5074106;28;20031;-75
2023/11/21 05:46:29;;;;;;;5.45;4.13;;;4.60;99.90;;;;;;5074294;28;20504;-80
2023/11/21 05:48:54;;;;;;;7.72;4.32;;;4.60;99.90;;;;;;5075179;28;20473;-74
2023/11/21 05:51:20;;;;;;;4.55;3.63;;;4.70;99.90;;;;;;5075216;28;20478;-75
2023/11/21 05:53:46;;;;;;;5.30;3.90;;;4.60;99.90;;;;;;5075247;28;20029;-80
2023/11/21 05:56:13;;;;;;;7.18;3.75;;;4.60;99.90;;;;;;5075341;28;20021;-74
2023/11/21 05:58:39;;;;;;;7.53;4.28;;;4.70;99.90;;;;;;5071320;28;20017;-74
2023/11/21 06:01:09;;;;;;;7.90;4.50;;;4.70;99.90;;;;;;5072801;28;20024;-74
2023/11/21 06:03:35;;;;;;;7.60;4.70;;;4.60;99.90;;;;;;5073482;28;20020;-80
2023/11/21 06:06:01;;;;;;;3.83;3.17;;;4.70;99.90;;;;;;5074478;28;20066;-80
2023/11/21 06:08:26;;;;;;;4.30;2.78;;;4.60;99.90;;;;;;5072412;28;20056;-74
2023/11/21 06:10:52;;;;;;;3.17;2.88;;;4.60;99.90;;;;;;5073782;28;20531;-81
2023/11/21 06:13:24;;;;;;;3.33;2.70;;;4.60;99.90;;;;;;5073441;28;20036;-81
2023/11/21 06:15:53;;;;;;;2.83;1.95;;;4.70;99.90;;;;;;5074951;28;20035;-75
2023/11/21 06:18:21;;;;;;;3.92;2.60;;;4.60;99.90;;;;;;5072796;28;20060;-75
2023/11/21 06:20:47;;;;;;;3.38;2.20;;;4.70;99.90;;;;;;5071544;28;20425;-81
2023/11/21 06:23:13;;;;;;;3.40;2.05;;;4.70;99.90;;;;;;5066436;28;20074;-81
2023/11/21 06:25:40;;;;;;;2.72;2.00;;;4.60;99.90;;;;;;5073045;28;20126;-81
2023/11/21 06:28:05;;;;;;;2.15;1.92;;;4.70;99.90;;;;;;5073282;28;20103;-80
2023/11/21 06:30:31;;;;;;;6.28;2.47;;;4.70;99.90;;;;;;5074348;28;20092;-74
2023/11/21 06:32:57;;;;;;;3.40;2.72;;;4.70;99.90;;;;;;5073189;28;20048;-81
2023/11/21 06:35:23;;;;;;;3.88;2.60;;;4.70;99.90;;;;;;5073130;28;20127;-81
2023/11/21 06:37:49;;;;;;;4.65;3.10;;;4.70;99.90;;;;;;5073430;28;20474;-80
2023/11/21 06:40:15;;;;;;;4.72;2.95;;;4.70;99.90;;;;;;5074296;28;20017;-74
2023/11/21 06:42:40;;;;;;;5.10;3.88;;;4.70;99.90;;;;;;5072666;28;20116;-75
2023/11/21 06:45:07;;;;;;;4.25;3.75;;;4.70;99.90;;;;;;5073026;28;20029;-75
2023/11/21 06:47:33;;;;;;;3.85;3.20;;;4.70;99.90;;;;;;5071207;28;20047;-80
2023/11/21 06:50:00;;;;;;;3.75;3.15;;;4.70;99.90;;;;;;5072330;28;20445;-81
2023/11/21 06:52:26;;;;;;;5.38;3.67;;;4.70;99.90;;;;;;5073726;28;20550;-75
2023/11/21 06:54:51;;;;;;;5.72;3.42;;;4.70;99.90;;;;;;5073045;28;20020;-75
2023/11/21 06:57:17;;;;;;;4.28;3.88;;;4.70;99.90;;;;;;5071039;28;20454;-74
2023/11/21 06:59:43;;;;;;;5.32;3.60;;;4.70;99.90;;;;;;5071849;28;20099;-74
2023/11/21 07:02:09;;;;;;;4.40;3.60;;;4.70;99.90;;;;;;5071742;28;20099;-81
2023/11/21 07:04:35;;;;;;;5.80;4.47;;;4.70;99.90;;;;;;5070055;28;20046;-75
2023/11/21 07:07:03;;;;;;;5.28;3.05;;;4.70;99.90;;;;;;5068451;28;20638;-81
2023/11/21 07:09:29;;;;;;;4.05;3.15;;;4.70;99.90;;;;;;5068631;28;20478;-81
2023/11/21 07:11:55;;;;;;;3.65;2.60;;;4.70;99.90;;;;;;5068918;28;20034;-75
2023/11/21 07:14:21;;;;;;;2.45;2.25;;;4.70;99.90;;;;;;5070727;28;20457;-81
2023/11/21 07:16:47;;;;;;;4.35;2.60;;;4.60;99.90;;;;;;5070028;28;20016;-75
2023/11/21 07:19:13;;;;;;;5.78;2.17;;;4.60;99.90;;;;;;5073219;28;20051;-80
2023/11/21 07:21:40;;;;;;;3.63;2.40;;;4.70;99.90;;;;;;5073706;28;20012;-75
2023/11/21 07:24:07;;;;;;;6.85;2.67;;;4.70;99.90;;;;;;5072281;28;20016;-81
2023/11/21 07:26:33;;;;;;;3.25;2.60;;;4.70;99.90;;;;;;5072210;28;20027;-75
2023/11/21 07:29:00;;;;;;;4.30;2.78;;;4.70;99.90;;;;;;5072989;28;20040;-81
2023/11/21 07:31:26;;;;;;;2.50;2.30;;;4.80;99.90;;;;;;5071508;28;20076;-81
2023/11/21 07:33:52;;;;;;;4.15;2.38;;;4.80;99.90;;;;;;5072074;28;20422;-75
2023/11/21 07:36:20;;;;;;;2.58;2.38;;;4.80;99.90;;;;;;5073002;28;20025;-75
2023/11/21 07:38:46;;;;;;;2.25;2.05;;;4.80;99.90;;;;;;5071421;28;20013;-75
2023/11/21 07:41:15;;;;;;;4.50;2.47;;;4.80;99.90;;;;;;5073177;28;20470;-81
2023/11/21 07:43:41;;;;;;;2.40;2.20;;;4.80;99.90;;;;;;5072844;28;20043;-75
2023/11/21 07:46:07;;;;;;;4.53;2.42;;;4.80;99.90;;;;;;5072037;28;20032;-80
2023/11/21 07:48:34;;;;;;;3.20;2.03;;;4.80;99.90;;;;;;5072302;28;20025;-81
2023/11/21 07:51:01;;;;;;;5.10;2.22;;;4.90;99.90;;;;;;5072595;28;20050;-81
2023/11/21 07:53:29;;;;;;;3.88;1.83;;;4.90;99.90;;;;;;5073001;28;20097;-79
2023/11/21 07:56:02;;;;;;;2.80;2.13;;;4.90;99.90;;;;;;5063230;28;20399;-74
2023/11/21 07:58:28;;;;;;;3.88;1.90;;;4.90;99.90;;;;;;5071652;28;20078;-80
2023/11/21 08:00:54;;;;;;;4.03;2.45;;;4.90;99.90;;;;;;5071665;28;20098;-75
2023/11/21 08:03:19;;;;;;;4.65;2.22;;;4.90;99.90;;;;;;5070884;28;20024;-75
2023/11/21 08:05:45;;;;;;;2.80;2.30;;;5.00;99.90;;;;;;5072834;28;20021;-80
2023/11/21 08:08:11;;;;;;;4.80;2.10;;;4.90;99.90;;;;;;5071384;28;20046;-75
2023/11/21 08:10:37;;;;;;;3.03;2.40;;;5.00;99.90;;;;;;5071628;28;20048;-75
2023/11/21 08:13:03;;;;;;;2.45;2.25;;;5.00;99.90;;;;;;5071720;28;20056;-80
2023/11/21 08:15:29;;;;;;;3.17;2.38;;;5.00;99.90;;;;;;5071672;28;20095;-75
2023/11/21 08:17:55;;;;;;;2.67;2.08;;;5.10;99.90;;;;;;5071972;28;20103;-75
2023/11/21 08:20:22;;;;;;;4.18;3.85;;;5.10;99.90;;;;;;5071858;28;20028;-75
2023/11/21 08:22:48;;;;;;;30.98;18.35;;;5.10;99.90;;;;;;5072696;28;20584;-81
2023/11/21 08:25:14;;;;;;;18.10;11.18;;;5.10;99.90;;;;;;5071377;28;20033;-75
2023/11/21 08:27:40;;;;;;;13.55;10.30;;;5.20;99.90;;;;;;5071289;28;20063;-80
2023/11/21 08:30:07;;;;;;;9.00;5.60;;;5.20;99.90;;;;;;5071345;28;20174;-76
2023/11/21 08:32:33;;;;;;;23.48;14.07;;;5.20;99.90;;;;;;5071039;28;20049;-81
2023/11/21 08:35:00;;;;;;;26.13;13.55;;;5.30;99.90;;;;;;5071255;28;20077;-80
2023/11/21 08:37:26;;;;;;;11.05;5.45;;;5.30;99.90;;;;;;5071853;28;20025;-81
2023/11/21 08:39:53;;;;;;;72.53;34.20;;;5.30;99.90;;;;;;5063714;28;20025;-80
2023/11/21 08:42:19;;;;;;;15.52;8.32;;;5.40;99.90;;;;;;5068205;28;20028;-81
2023/11/21 08:44:45;;;;;;;8.27;5.80;;;5.30;99.90;;;;;;5063071;28;20111;-81
2023/11/21 08:47:11;;;;;;;7.50;5.32;;;5.40;99.90;;;;;;5070855;28;20027;-80
2023/11/21 08:49:37;;;;;;;9.07;6.35;;;5.50;99.90;;;;;;5075435;28;20477;-81
2023/11/21 08:52:05;;;;;;;5.68;3.97;;;5.50;99.90;;;;;;5075827;28;20448;-81
2023/11/21 08:54:31;;;;;;;12.73;7.80;;;5.60;99.90;;;;;;5076236;28;20055;-75
2023/11/21 08:56:57;;;;;;;12.27;6.40;;;5.60;99.90;;;;;;5074816;28;20016;-75
2023/11/21 08:59:24;;;;;;;14.02;6.38;;;5.70;99.90;;;;;;5076402;28;20016;-81
2023/11/21 09:01:50;;;;;;;11.55;7.32;;;5.70;99.90;;;;;;5074959;28;20020;-79
2023/11/21 09:04:16;;;;;;;9.85;5.60;;;5.60;99.90;;;;;;5076296;28;20032;-82
2023/11/21 09:06:42;;;;;;;10.88;6.80;;;5.70;99.90;;;;;;5076016;28;20481;-73
2023/11/21 09:09:08;;;;;;;29.25;16.17;;;5.70;99.90;;;;;;5075140;28;20013;-75
2023/11/21 09:11:34;;;;;;;22.05;12.80;;;5.70;99.90;;;;;;5076034;28;20047;-74
2023/11/21 09:14:00;;;;;;;18.20;10.35;;;5.70;99.90;;;;;;5073229;28;20036;-74
2023/11/21 09:16:26;;;;;;;11.93;7.85;;;5.70;99.90;;;;;;5072680;28;20013;-79
2023/11/21 09:18:52;;;;;;;24.55;15.40;;;5.70;99.90;;;;;;5074355;28;20382;-79
2023/11/21 09:21:18;;;;;;;18.33;11.75;;;5.70;99.90;;;;;;5072457;28;20024;-79
2023/11/21 09:23:46;;;;;;;23.85;14.65;;;5.70;99.90;;;;;;5074160;28;20034;-79
2023/11/21 09:26:12;;;;;;;17.00;9.32;;;5.70;99.90;;;;;;5073654;28;20521;-80
2023/11/21 09:28:39;;;;;;;9.65;7.07;;;5.70;99.90;;;;;;5075173;28;20070;-74
2023/11/21 09:31:08;;;;;;;14.55;8.93;;;5.70;99.90;;;;;;5075432;28;20093;-75
2023/11/21 09:33:34;;;;;;;15.10;9.88;;;5.70;99.90;;;;;;5074764;28;20040;-80
2023/11/21 09:36:01;;;;;;;11.90;7.90;;;5.70;99.90;;;;;;5075512;28;20024;-74
2023/11/21 09:38:28;;;;;;;14.50;7.38;;;5.70;99.90;;;;;;5074545;28;20033;-74
2023/11/21 09:40:54;;;;;;;11.65;6.50;;;5.80;99.90;;;;;;5075585;28;20020;-79
2023/11/21 09:43:22;;;;;;;5.82;4.15;;;5.70;99.90;;;;;;5074601;28;20027;-79
2023/11/21 09:45:54;;;;;;;5.65;3.88;;;5.80;99.90;;;;;;5070341;28;20486;-79
2023/11/21 09:48:20;;;;;;;6.30;4.15;;;5.70;99.90;;;;;;5068573;28;20386;-74
2023/11/21 09:50:47;;;;;;;5.80;3.92;;;5.70;99.90;;;;;;5074012;28;20089;-75
2023/11/21 09:53:21;;;;;;;6.57;4.68;;;5.70;99.90;;;;;;5075411;28;20066;-80
2023/11/21 09:55:50;;;;;;;7.95;4.85;;;5.70;99.90;;;;;;5075072;28;20028;-74
2023/11/21 09:58:17;;;;;;;7.63;4.70;;;5.80;99.90;;;;;;5068388;28;20021;-79
2023/11/21 10:00:45;;;;;;;11.43;7.78;;;5.70;99.90;;;;;;5074683;28;20031;-79
2023/11/21 10:03:11;;;;;;;6.35;4.03;;;5.80;99.90;;;;;;5073583;28;20029;-79
2023/11/21 10:05:38;;;;;;;5.95;3.10;;;5.70;99.90;;;;;;5074007;28;20078;-74
2023/11/21 10:08:09;;;;;;;4.38;3.25;;;5.80;99.90;;;;;;5073429;28;20017;-74
2023/11/21 10:10:36;;;;;;;3.20;2.60;;;5.70;99.90;;;;;;5075397;28;20470;-74
2023/11/21 10:13:07;;;;;;;5.38;2.92;;;5.70;99.90;;;;;;5073365;28;20029;-74
2023/11/21 10:15:34;;;;;;;5.43;3.50;;;5.70;99.90;;;;;;5074285;28;20021;-74
2023/11/21 10:18:06;;;;;;;6.65;4.28;;;5.70;99.90;;;;;;5073499;28;20024;-80
2023/11/21 10:20:37;;;;;;;3.70;3.40;;;5.70;99.90;;;;;;5075135;28;20478;-79
2023/11/21 10:23:04;;;;;;;7.03;4.20;;;5.70;99.90;;;;;;5073420;28;20298;-74
2023/11/21 10:25:30;;;;;;;3.97;2.80;;;5.70;99.90;;;;;;5073576;28;20077;-80
2023/11/21 10:28:03;;;;;;;4.20;2.97;;;5.70;99.90;;;;;;5074600;28;20052;-74
2023/11/21 10:30:36;;;;;;;5.00;2.53;;;5.70;99.90;;;;;;5073644;28;20016;-74
2023/11/21 10:33:06;;;;;;;5.50;3.00;;;5.70;99.90;;;;;;5073056;28;20154;-80
2023/11/21 10:35:54;;;;;;;10.07;7.30;;;5.70;99.90;;;;;;5074525;28;20024;-74
2023/11/21 10:38:24;;;;;;;11.38;8.73;;;5.80;99.90;;;;;;5074808;28;20043;-79
2023/11/21 10:40:50;;;;;;;7.13;4.90;;;5.80;99.90;;;;;;5073131;28;20106;-80
2023/11/21 10:43:17;;;;;;;6.55;5.38;;;5.90;99.90;;;;;;5074901;28;20065;-74
2023/11/21 10:45:43;;;;;;;9.85;7.03;;;5.90;99.90;;;;;;5073201;28;20020;-80
2023/11/21 10:48:10;;;;;;;8.35;6.63;;;5.90;99.90;;;;;;5074447;28;20044;-80
2023/11/21 10:50:37;;;;;;;17.05;12.18;;;5.90;99.90;;;;;;5074302;28;20409;-74
2023/11/21 10:53:04;;;;;;;8.55;4.20;;;5.90;99.90;;;;;;5072986;28;20059;-74
2023/11/21 10:55:31;;;;;;;7.28;5.55;;;5.90;99.90;;;;;;5074174;28;20051;-80
2023/11/21 10:57:59;;;;;;;6.38;5.03;;;6.00;99.90;;;;;;5073739;28;20021;-79
2023/11/21 11:00:27;;;;;;;5.85;3.85;;;6.00;99.90;;;;;;5074102;28;20020;-74
2023/11/21 11:02:56;;;;;;;7.38;6.22;;;6.00;99.90;;;;;;5074298;28;20021;-75
2023/11/21 11:05:24;;;;;;;7.65;5.15;;;6.10;99.90;;;;;;5072184;28;20090;-79
2023/11/21 11:08:04;;;;;;;6.50;5.75;;;6.20;99.90;;;;;;5074297;28;20048;-79
2023/11/21 11:10:29;;;;;;;7.95;4.68;;;6.20;99.90;;;;;;5074069;28;20021;-74
2023/11/21 11:12:57;;;;;;;16.45;8.13;;;6.30;99.90;;;;;;5071345;28;20101;-80
2023/11/21 11:15:23;;;;;;;22.08;10.25;;;6.30;99.90;;;;;;5073866;28;20052;-74
2023/11/21 11:17:50;;;;;;;6.35;4.65;;;6.40;99.90;;;;;;5072462;28;20035;-75
2023/11/21 11:20:17;;;;;;;7.68;6.53;;;6.40;99.90;;;;;;5073628;28;20032;-80
2023/11/21 11:23:05;;;;;;;8.05;5.10;;;6.40;99.90;;;;;;5073797;28;20025;-74
2023/11/21 11:25:56;;;;;;;23.85;11.25;;;6.40;99.90;;;;;;5072609;28;20514;-75
2023/11/21 11:28:37;;;;;;;12.57;6.60;;;6.40;99.90;;;;;;5061043;28;20017;-79
2023/11/21 11:31:44;;;;;;;13.40;8.32;;;6.40;99.90;;;;;;5071746;28;20078;-74
2023/11/21 11:34:29;;;;;;;10.32;6.82;;;6.40;99.90;;;;;;5072517;28;20048;-80
2023/11/21 11:37:04;;;;;;;9.88;6.47;;;6.40;99.90;;;;;;5072289;28;20025;-75
2023/11/21 11:39:38;;;;;;;8.50;5.90;;;6.40;99.90;;;;;;5071808;28;20013;-75
2023/11/21 11:42:07;;;;;;;10.77;7.10;;;6.40;99.90;;;;;;5073115;28;20035;-80
2023/11/21 11:44:51;;;;;;;10.75;6.32;;;6.50;99.90;;;;;;5073422;28;20019;-74
2023/11/21 11:47:20;;;;;;;10.63;6.43;;;6.50;99.90;;;;;;5071764;28;20373;-74
2023/11/21 11:50:16;;;;;;;9.95;6.65;;;6.60;99.90;;;;;;5072166;28;20017;-74
2023/11/21 11:52:51;;;;;;;13.25;6.38;;;6.60;99.90;;;;;;5062225;28;20494;-74
2023/11/21 11:55:18;;;;;;;11.27;7.90;;;6.70;99.90;;;;;;5071554;28;20025;-74
2023/11/21 11:57:51;;;;;;;9.02;6.43;;;6.80;99.90;;;;;;5071828;28;20029;-79
2023/11/21 12:00:24;;;;;;;9.02;6.88;;;6.80;99.90;;;;;;5071557;28;20017;-80
2023/11/21 12:02:56;;;;;;;14.00;6.47;;;6.80;99.90;;;;;;5071906;28;20028;-79
2023/11/21 12:05:23;;;;;;;10.57;6.73;;;6.80;99.90;;;;;;5071547;28;20025;-80
2023/11/21 12:07:57;;;;;;;11.23;6.72;;;6.90;99.90;;;;;;5073249;28;20021;-74
2023/11/21 12:10:25;;;;;;;9.05;6.65;;;6.80;99.90;;;;;;5059397;28;20024;-79
2023/11/21 12:12:52;;;;;;;8.85;7.15;;;6.80;99.90;;;;;;5071380;28;20056;-76
2023/11/21 12:15:19;;;;;;;11.30;5.53;;;6.70;99.90;;;;;;5060583;28;20020;-79
2023/11/21 12:17:46;;;;;;;6.90;5.40;;;6.70;99.90;;;;;;5071475;28;20028;-74
2023/11/21 12:20:18;;;;;;;4.97;4.47;;;6.70;99.90;;;;;;5073191;28;20051;-74
2023/11/21 12:22:47;;;;;;;5.97;5.07;;;6.60;99.90;;;;;;5072614;28;20050;-74
2023/11/21 12:25:24;;;;;;;5.43;4.93;;;6.60;99.90;;;;;;5072676;28;20027;-79
2023/11/21 12:27:52;;;;;;;3.70;3.35;;;6.50;99.90;;;;;;5072531;28;20527;-75
2023/11/21 12:30:23;;;;;;;3.92;3.38;;;6.40;99.90;;;;;;5071343;28;20028;-74
2023/11/21 12:32:53;;;;;;;6.80;3.70;;;6.30;99.90;;;;;;5072311;28;20135;-74
2023/11/21 12:35:21;;;;;;;5.22;3.72;;;6.20;99.90;;;;;;5071367;28;20040;-74
2023/11/21 12:37:48;;;;;;;6.40;4.55;;;6.20;99.90;;;;;;5072374;28;20103;-75
2023/11/21 12:40:17;;;;;;;5.63;4.22;;;6.20;99.90;;;;;;5072610;28;20034;-79
2023/11/21 12:42:48;;;;;;;5.55;4.20;;;6.10;99.90;;;;;;5059578;28;20024;-74
2023/11/21 12:45:17;;;;;;;6.00;4.18;;;6.10;99.90;;;;;;5072466;28;20025;-80
2023/11/21 12:48:07;;;;;;;6.25;4.05;;;6.10;99.90;;;;;;5071303;28;20024;-74
2023/11/21 12:50:34;;;;;;;5.47;4.22;;;6.10;99.90;;;;;;5072384;28;20028;-75
2023/11/21 12:53:11;;;;;;;6.53;4.68;;;6.00;99.90;;;;;;5071148;28;20055;-79
2023/11/21 12:55:38;;;;;;;8.23;4.57;;;6.00;99.90;;;;;;5072420;28;20078;-74
2023/11/21 12:58:09;;;;;;;7.28;4.45;;;6.00;99.90;;;;;;5071245;28;20021;-79